Nashville, Tennessee
Traffic Map
Current Weather Conditions
Nashville, Tennessee
Clear
Clear
64°
Feels Like: 64°
Wind Chill: 64° Ceiling: Unl
Heat Index: 64° Visibility: 10mi
Dew Point: 55° Wind: 0mph
Humidity: 72% Direction: ° ()
Pressure: 30.1in Gusts: 0mph
Raw Report DataKBNA 300453Z 00000KT 10SM CLR 18/13 A3010 RMK AO2 SLP188 T01780128
Traffic Incident Summary
Active as of:
Severity:
Category:
InformationThere was an issue retrieving the traffic information for this location. Please try a different location or try again shortly.
Advertisements
Track Severe Weather on mobile